sensor_id;sensor_type;location;lat;lon;timestamp;P1;durP1;ratioP1;P2;durP2;ratioP2
4808;SDS011;2418;49.930;8.606;2022-08-19T00:00:06;22.80;;;17.45;;
4808;SDS011;2418;49.930;8.606;2022-08-19T00:02:33;24.35;;;18.98;;
4808;SDS011;2418;49.930;8.606;2022-08-19T00:04:59;22.45;;;18.48;;
4808;SDS011;2418;49.930;8.606;2022-08-19T00:07:25;26.37;;;17.60;;
4808;SDS011;2418;49.930;8.606;2022-08-19T00:09:51;25.42;;;19.58;;
4808;SDS011;2418;49.930;8.606;2022-08-19T00:12:17;21.48;;;17.83;;
4808;SDS011;2418;49.930;8.606;2022-08-19T00:14:43;19.52;;;17.00;;
4808;SDS011;2418;49.930;8.606;2022-08-19T00:17:09;20.00;;;17.83;;
4808;SDS011;2418;49.930;8.606;2022-08-19T00:19:35;23.53;;;17.53;;
4808;SDS011;2418;49.930;8.606;2022-08-19T00:22:02;20.50;;;17.10;;
4808;SDS011;2418;49.930;8.606;2022-08-19T00:24:28;24.35;;;19.10;;
4808;SDS011;2418;49.930;8.606;2022-08-19T00:26:55;22.35;;;18.08;;
4808;SDS011;2418;49.930;8.606;2022-08-19T00:29:23;20.83;;;17.37;;
4808;SDS011;2418;49.930;8.606;2022-08-19T00:31:50;24.33;;;18.15;;
4808;SDS011;2418;49.930;8.606;2022-08-19T00:34:19;26.88;;;18.90;;
4808;SDS011;2418;49.930;8.606;2022-08-19T00:36:45;24.17;;;18.60;;
4808;SDS011;2418;49.930;8.606;2022-08-19T00:39:11;23.88;;;17.85;;
4808;SDS011;2418;49.930;8.606;2022-08-19T00:41:38;26.05;;;18.65;;
4808;SDS011;2418;49.930;8.606;2022-08-19T00:44:06;23.27;;;18.67;;
4808;SDS011;2418;49.930;8.606;2022-08-19T00:46:33;25.45;;;19.75;;
4808;SDS011;2418;49.930;8.606;2022-08-19T00:49:00;23.90;;;19.00;;
4808;SDS011;2418;49.930;8.606;2022-08-19T00:51:28;21.27;;;18.20;;
4808;SDS011;2418;49.930;8.606;2022-08-19T00:53:57;25.55;;;18.77;;
4808;SDS011;2418;49.930;8.606;2022-08-19T00:56:25;24.92;;;19.40;;
4808;SDS011;2418;49.930;8.606;2022-08-19T00:58:52;25.65;;;19.63;;
4808;SDS011;2418;49.930;8.606;2022-08-19T01:01:18;27.37;;;20.03;;
4808;SDS011;2418;49.930;8.606;2022-08-19T01:03:44;22.33;;;19.30;;
4808;SDS011;2418;49.930;8.606;2022-08-19T01:06:10;24.05;;;20.10;;
4808;SDS011;2418;49.930;8.606;2022-08-19T01:08:35;24.50;;;19.83;;
4808;SDS011;2418;49.930;8.606;2022-08-19T01:11:01;25.10;;;19.05;;
4808;SDS011;2418;49.930;8.606;2022-08-19T01:13:29;25.40;;;19.75;;
4808;SDS011;2418;49.930;8.606;2022-08-19T01:16:06;23.48;;;19.85;;
4808;SDS011;2418;49.930;8.606;2022-08-19T01:18:35;23.13;;;19.67;;
4808;SDS011;2418;49.930;8.606;2022-08-19T01:21:05;26.27;;;20.33;;
4808;SDS011;2418;49.930;8.606;2022-08-19T01:23:33;23.60;;;20.20;;
4808;SDS011;2418;49.930;8.606;2022-08-19T01:26:12;26.40;;;19.43;;
4808;SDS011;2418;49.930;8.606;2022-08-19T01:28:39;21.73;;;18.50;;
4808;SDS011;2418;49.930;8.606;2022-08-19T01:31:06;22.27;;;18.08;;
4808;SDS011;2418;49.930;8.606;2022-08-19T01:33:32;25.38;;;19.20;;
4808;SDS011;2418;49.930;8.606;2022-08-19T01:36:05;24.15;;;18.77;;
4808;SDS011;2418;49.930;8.606;2022-08-19T01:38:35;24.10;;;18.05;;
4808;SDS011;2418;49.930;8.606;2022-08-19T01:41:01;27.35;;;18.90;;
4808;SDS011;2418;49.930;8.606;2022-08-19T01:43:27;21.90;;;17.30;;
4808;SDS011;2418;49.930;8.606;2022-08-19T01:45:53;21.92;;;18.25;;
4808;SDS011;2418;49.930;8.606;2022-08-19T01:48:19;25.55;;;19.13;;
4808;SDS011;2418;49.930;8.606;2022-08-19T01:50:45;22.13;;;18.55;;
4808;SDS011;2418;49.930;8.606;2022-08-19T01:53:12;23.17;;;18.85;;
4808;SDS011;2418;49.930;8.606;2022-08-19T01:55:39;22.67;;;17.67;;
4808;SDS011;2418;49.930;8.606;2022-08-19T01:58:06;22.60;;;18.50;;
4808;SDS011;2418;49.930;8.606;2022-08-19T02:00:33;24.05;;;17.95;;
4808;SDS011;2418;49.930;8.606;2022-08-19T02:02:59;22.55;;;17.60;;
4808;SDS011;2418;49.930;8.606;2022-08-19T02:05:26;22.20;;;17.07;;
4808;SDS011;2418;49.930;8.606;2022-08-19T02:07:54;20.73;;;17.20;;
4808;SDS011;2418;49.930;8.606;2022-08-19T02:10:20;22.30;;;17.50;;
4808;SDS011;2418;49.930;8.606;2022-08-19T02:12:47;21.33;;;16.98;;
4808;SDS011;2418;49.930;8.606;2022-08-19T02:15:14;22.92;;;17.70;;
4808;SDS011;2418;49.930;8.606;2022-08-19T02:17:40;20.85;;;17.73;;
4808;SDS011;2418;49.930;8.606;2022-08-19T02:20:07;22.75;;;17.17;;
4808;SDS011;2418;49.930;8.606;2022-08-19T02:22:33;20.55;;;16.90;;
4808;SDS011;2418;49.930;8.606;2022-08-19T02:25:00;21.38;;;17.25;;
4808;SDS011;2418;49.930;8.606;2022-08-19T02:27:26;23.50;;;18.08;;
4808;SDS011;2418;49.930;8.606;2022-08-19T02:29:52;23.00;;;17.20;;
4808;SDS011;2418;49.930;8.606;2022-08-19T02:32:19;22.15;;;18.08;;
4808;SDS011;2418;49.930;8.606;2022-08-19T02:34:45;21.43;;;17.50;;
4808;SDS011;2418;49.930;8.606;2022-08-19T02:37:11;22.25;;;16.17;;
4808;SDS011;2418;49.930;8.606;2022-08-19T02:39:56;23.08;;;18.27;;
4808;SDS011;2418;49.930;8.606;2022-08-19T02:42:22;23.63;;;17.45;;
4808;SDS011;2418;49.930;8.606;2022-08-19T02:44:48;23.00;;;17.83;;
4808;SDS011;2418;49.930;8.606;2022-08-19T02:47:14;20.58;;;17.10;;
4808;SDS011;2418;49.930;8.606;2022-08-19T02:49:41;22.95;;;17.33;;
4808;SDS011;2418;49.930;8.606;2022-08-19T02:52:07;23.80;;;18.20;;
4808;SDS011;2418;49.930;8.606;2022-08-19T02:54:33;20.13;;;17.45;;
4808;SDS011;2418;49.930;8.606;2022-08-19T02:56:59;20.35;;;17.67;;
4808;SDS011;2418;49.930;8.606;2022-08-19T02:59:25;22.60;;;17.98;;
4808;SDS011;2418;49.930;8.606;2022-08-19T03:01:51;22.48;;;17.33;;
4808;SDS011;2418;49.930;8.606;2022-08-19T03:04:18;21.58;;;17.85;;
4808;SDS011;2418;49.930;8.606;2022-08-19T03:06:45;22.98;;;17.80;;
4808;SDS011;2418;49.930;8.606;2022-08-19T03:09:11;22.90;;;18.10;;
4808;SDS011;2418;49.930;8.606;2022-08-19T03:11:37;24.98;;;18.52;;
4808;SDS011;2418;49.930;8.606;2022-08-19T03:14:04;23.57;;;19.10;;
4808;SDS011;2418;49.930;8.606;2022-08-19T03:16:31;23.60;;;18.67;;
4808;SDS011;2418;49.930;8.606;2022-08-19T03:18:58;19.92;;;17.33;;
4808;SDS011;2418;49.930;8.606;2022-08-19T03:21:25;26.73;;;18.33;;
4808;SDS011;2418;49.930;8.606;2022-08-19T03:23:55;23.80;;;18.92;;
4808;SDS011;2418;49.930;8.606;2022-08-19T03:26:21;24.63;;;19.45;;
4808;SDS011;2418;49.930;8.606;2022-08-19T03:28:47;26.00;;;18.80;;
4808;SDS011;2418;49.930;8.606;2022-08-19T03:31:14;23.70;;;19.05;;
4808;SDS011;2418;49.930;8.606;2022-08-19T03:33:41;24.67;;;19.27;;
4808;SDS011;2418;49.930;8.606;2022-08-19T03:36:08;26.02;;;18.92;;
4808;SDS011;2418;49.930;8.606;2022-08-19T03:38:36;22.65;;;18.75;;
4808;SDS011;2418;49.930;8.606;2022-08-19T03:41:06;24.95;;;19.60;;
4808;SDS011;2418;49.930;8.606;2022-08-19T03:43:34;27.33;;;18.48;;
4808;SDS011;2418;49.930;8.606;2022-08-19T03:46:01;25.55;;;19.15;;
4808;SDS011;2418;49.930;8.606;2022-08-19T03:48:28;24.08;;;18.67;;
4808;SDS011;2418;49.930;8.606;2022-08-19T03:50:55;25.58;;;17.92;;
4808;SDS011;2418;49.930;8.606;2022-08-19T03:53:23;20.65;;;17.45;;
4808;SDS011;2418;49.930;8.606;2022-08-19T03:55:50;24.25;;;18.00;;
4808;SDS011;2418;49.930;8.606;2022-08-19T03:58:16;25.65;;;18.50;;
4808;SDS011;2418;49.930;8.606;2022-08-19T04:00:42;22.15;;;18.13;;
4808;SDS011;2418;49.930;8.606;2022-08-19T04:03:08;26.50;;;19.40;;
4808;SDS011;2418;49.930;8.606;2022-08-19T04:05:34;21.08;;;17.63;;
4808;SDS011;2418;49.930;8.606;2022-08-19T04:08:00;20.70;;;17.83;;
4808;SDS011;2418;49.930;8.606;2022-08-19T04:10:27;20.77;;;17.50;;
4808;SDS011;2418;49.930;8.606;2022-08-19T04:12:53;21.30;;;17.60;;
4808;SDS011;2418;49.930;8.606;2022-08-19T04:15:19;23.85;;;18.48;;
4808;SDS011;2418;49.930;8.606;2022-08-19T04:17:45;27.25;;;18.90;;
4808;SDS011;2418;49.930;8.606;2022-08-19T04:20:11;23.63;;;18.35;;
4808;SDS011;2418;49.930;8.606;2022-08-19T04:22:37;22.05;;;17.92;;
4808;SDS011;2418;49.930;8.606;2022-08-19T04:25:03;22.15;;;17.67;;
4808;SDS011;2418;49.930;8.606;2022-08-19T04:27:29;22.48;;;18.10;;
4808;SDS011;2418;49.930;8.606;2022-08-19T04:29:56;24.90;;;18.88;;
4808;SDS011;2418;49.930;8.606;2022-08-19T04:32:22;27.27;;;18.63;;
4808;SDS011;2418;49.930;8.606;2022-08-19T04:34:48;21.23;;;17.95;;
4808;SDS011;2418;49.930;8.606;2022-08-19T04:37:14;26.33;;;18.97;;
4808;SDS011;2418;49.930;8.606;2022-08-19T04:39:40;24.23;;;18.73;;
4808;SDS011;2418;49.930;8.606;2022-08-19T04:42:25;21.35;;;18.58;;
4808;SDS011;2418;49.930;8.606;2022-08-19T04:45:06;22.45;;;18.10;;
4808;SDS011;2418;49.930;8.606;2022-08-19T04:47:35;28.38;;;20.02;;
4808;SDS011;2418;49.930;8.606;2022-08-19T04:50:02;27.47;;;19.00;;
4808;SDS011;2418;49.930;8.606;2022-08-19T04:52:28;27.10;;;18.80;;
4808;SDS011;2418;49.930;8.606;2022-08-19T04:54:56;26.02;;;19.50;;
4808;SDS011;2418;49.930;8.606;2022-08-19T04:57:22;26.02;;;20.23;;
4808;SDS011;2418;49.930;8.606;2022-08-19T04:59:49;33.67;;;19.87;;
4808;SDS011;2418;49.930;8.606;2022-08-19T05:02:15;27.35;;;19.70;;
4808;SDS011;2418;49.930;8.606;2022-08-19T05:04:41;26.75;;;20.85;;
4808;SDS011;2418;49.930;8.606;2022-08-19T05:07:07;25.55;;;20.13;;
4808;SDS011;2418;49.930;8.606;2022-08-19T05:09:33;24.57;;;19.27;;
4808;SDS011;2418;49.930;8.606;2022-08-19T05:11:59;24.83;;;19.77;;
4808;SDS011;2418;49.930;8.606;2022-08-19T05:14:25;21.03;;;18.27;;
4808;SDS011;2418;49.930;8.606;2022-08-19T05:16:51;24.20;;;19.70;;
4808;SDS011;2418;49.930;8.606;2022-08-19T05:19:17;28.70;;;19.45;;
4808;SDS011;2418;49.930;8.606;2022-08-19T05:22:02;24.23;;;19.00;;
4808;SDS011;2418;49.930;8.606;2022-08-19T05:24:47;28.30;;;19.17;;
4808;SDS011;2418;49.930;8.606;2022-08-19T05:27:13;27.30;;;18.80;;
4808;SDS011;2418;49.930;8.606;2022-08-19T05:29:39;20.67;;;18.33;;
4808;SDS011;2418;49.930;8.606;2022-08-19T05:32:06;21.77;;;18.30;;
4808;SDS011;2418;49.930;8.606;2022-08-19T05:34:35;20.17;;;17.97;;
4808;SDS011;2418;49.930;8.606;2022-08-19T05:37:03;22.75;;;18.08;;
4808;SDS011;2418;49.930;8.606;2022-08-19T05:39:30;20.67;;;17.52;;
4808;SDS011;2418;49.930;8.606;2022-08-19T05:41:58;20.23;;;16.90;;
4808;SDS011;2418;49.930;8.606;2022-08-19T05:44:25;20.27;;;16.63;;
4808;SDS011;2418;49.930;8.606;2022-08-19T05:46:51;20.60;;;15.70;;
4808;SDS011;2418;49.930;8.606;2022-08-19T05:49:18;20.00;;;16.27;;
4808;SDS011;2418;49.930;8.606;2022-08-19T05:51:44;19.73;;;16.08;;
4808;SDS011;2418;49.930;8.606;2022-08-19T05:54:10;18.33;;;16.42;;
4808;SDS011;2418;49.930;8.606;2022-08-19T05:56:38;17.05;;;14.80;;
4808;SDS011;2418;49.930;8.606;2022-08-19T05:59:05;18.48;;;15.80;;
4808;SDS011;2418;49.930;8.606;2022-08-19T06:01:35;18.80;;;16.30;;
4808;SDS011;2418;49.930;8.606;2022-08-19T06:04:02;17.50;;;15.70;;
4808;SDS011;2418;49.930;8.606;2022-08-19T06:06:28;20.02;;;15.30;;
4808;SDS011;2418;49.930;8.606;2022-08-19T06:08:54;19.35;;;15.93;;
4808;SDS011;2418;49.930;8.606;2022-08-19T06:11:24;18.85;;;15.05;;
4808;SDS011;2418;49.930;8.606;2022-08-19T06:13:52;17.77;;;15.88;;
4808;SDS011;2418;49.930;8.606;2022-08-19T06:16:21;17.60;;;15.65;;
4808;SDS011;2418;49.930;8.606;2022-08-19T06:18:53;17.50;;;15.00;;
4808;SDS011;2418;49.930;8.606;2022-08-19T06:21:22;16.50;;;14.90;;
4808;SDS011;2418;49.930;8.606;2022-08-19T06:23:51;17.77;;;15.10;;
4808;SDS011;2418;49.930;8.606;2022-08-19T06:26:18;16.50;;;14.38;;
4808;SDS011;2418;49.930;8.606;2022-08-19T06:28:45;15.98;;;14.48;;
4808;SDS011;2418;49.930;8.606;2022-08-19T06:31:15;16.77;;;15.07;;
4808;SDS011;2418;49.930;8.606;2022-08-19T06:33:42;21.20;;;14.02;;
4808;SDS011;2418;49.930;8.606;2022-08-19T06:36:15;14.43;;;13.13;;
4808;SDS011;2418;49.930;8.606;2022-08-19T06:38:41;21.33;;;13.70;;
4808;SDS011;2418;49.930;8.606;2022-08-19T06:41:08;16.25;;;14.25;;
4808;SDS011;2418;49.930;8.606;2022-08-19T06:43:34;16.80;;;15.10;;
4808;SDS011;2418;49.930;8.606;2022-08-19T06:46:01;16.75;;;15.05;;
4808;SDS011;2418;49.930;8.606;2022-08-19T06:48:28;17.77;;;13.57;;
4808;SDS011;2418;49.930;8.606;2022-08-19T06:50:54;14.20;;;12.70;;
4808;SDS011;2418;49.930;8.606;2022-08-19T06:53:20;16.48;;;13.50;;
4808;SDS011;2418;49.930;8.606;2022-08-19T06:55:46;16.10;;;12.40;;
4808;SDS011;2418;49.930;8.606;2022-08-19T06:58:12;13.98;;;12.68;;
4808;SDS011;2418;49.930;8.606;2022-08-19T07:00:39;16.55;;;12.80;;
4808;SDS011;2418;49.930;8.606;2022-08-19T07:03:05;15.73;;;12.70;;
4808;SDS011;2418;49.930;8.606;2022-08-19T07:05:31;13.43;;;12.25;;
4808;SDS011;2418;49.930;8.606;2022-08-19T07:07:56;13.45;;;11.95;;
4808;SDS011;2418;49.930;8.606;2022-08-19T07:10:22;14.13;;;12.68;;
4808;SDS011;2418;49.930;8.606;2022-08-19T07:12:50;16.52;;;12.50;;
4808;SDS011;2418;49.930;8.606;2022-08-19T07:15:16;12.63;;;11.32;;
4808;SDS011;2418;49.930;8.606;2022-08-19T07:17:42;14.07;;;11.50;;
4808;SDS011;2418;49.930;8.606;2022-08-19T07:20:08;12.00;;;10.80;;
4808;SDS011;2418;49.930;8.606;2022-08-19T07:22:36;11.23;;;10.38;;
4808;SDS011;2418;49.930;8.606;2022-08-19T07:25:02;11.13;;;10.02;;
4808;SDS011;2418;49.930;8.606;2022-08-19T07:27:28;10.07;;;9.00;;
4808;SDS011;2418;49.930;8.606;2022-08-19T07:29:54;9.17;;;8.67;;
4808;SDS011;2418;49.930;8.606;2022-08-19T07:32:20;9.20;;;8.40;;
4808;SDS011;2418;49.930;8.606;2022-08-19T07:34:46;9.57;;;8.57;;
4808;SDS011;2418;49.930;8.606;2022-08-19T07:37:12;8.40;;;7.90;;
4808;SDS011;2418;49.930;8.606;2022-08-19T07:39:38;7.88;;;7.35;;
4808;SDS011;2418;49.930;8.606;2022-08-19T07:42:08;8.45;;;7.55;;
4808;SDS011;2418;49.930;8.606;2022-08-19T07:44:34;7.63;;;7.20;;
4808;SDS011;2418;49.930;8.606;2022-08-19T07:47:00;8.60;;;7.72;;
4808;SDS011;2418;49.930;8.606;2022-08-19T07:49:27;7.65;;;6.95;;
4808;SDS011;2418;49.930;8.606;2022-08-19T07:51:54;7.28;;;6.78;;
4808;SDS011;2418;49.930;8.606;2022-08-19T07:54:21;7.63;;;7.00;;
4808;SDS011;2418;49.930;8.606;2022-08-19T07:56:48;9.40;;;7.30;;
4808;SDS011;2418;49.930;8.606;2022-08-19T07:59:15;8.50;;;7.80;;
4808;SDS011;2418;49.930;8.606;2022-08-19T08:01:42;8.20;;;7.60;;
4808;SDS011;2418;49.930;8.606;2022-08-19T08:04:09;8.23;;;7.53;;
4808;SDS011;2418;49.930;8.606;2022-08-19T08:06:54;7.47;;;6.88;;
4808;SDS011;2418;49.930;8.606;2022-08-19T08:09:40;7.63;;;7.03;;
4808;SDS011;2418;49.930;8.606;2022-08-19T08:14:34;7.00;;;6.65;;
4808;SDS011;2418;49.930;8.606;2022-08-19T08:17:01;6.20;;;5.70;;
4808;SDS011;2418;49.930;8.606;2022-08-19T08:19:27;5.80;;;5.40;;
4808;SDS011;2418;49.930;8.606;2022-08-19T08:21:54;6.78;;;6.18;;
4808;SDS011;2418;49.930;8.606;2022-08-19T08:24:21;6.17;;;5.67;;
4808;SDS011;2418;49.930;8.606;2022-08-19T08:26:47;5.90;;;5.50;;
4808;SDS011;2418;49.930;8.606;2022-08-19T08:29:14;6.30;;;5.80;;
4808;SDS011;2418;49.930;8.606;2022-08-19T08:31:41;9.45;;;6.03;;
4808;SDS011;2418;49.930;8.606;2022-08-19T08:34:07;5.28;;;5.07;;
4808;SDS011;2418;49.930;8.606;2022-08-19T08:36:37;6.60;;;6.20;;
4808;SDS011;2418;49.930;8.606;2022-08-19T08:39:08;5.80;;;5.50;;
4808;SDS011;2418;49.930;8.606;2022-08-19T08:41:35;5.75;;;5.55;;
4808;SDS011;2418;49.930;8.606;2022-08-19T08:44:03;6.30;;;5.90;;
4808;SDS011;2418;49.930;8.606;2022-08-19T08:46:37;5.70;;;5.50;;
4808;SDS011;2418;49.930;8.606;2022-08-19T08:52:33;6.13;;;5.80;;
4808;SDS011;2418;49.930;8.606;2022-08-19T08:54:43;6.40;;;6.00;;
4808;SDS011;2418;49.930;8.606;2022-08-19T08:57:14;5.40;;;5.10;;
4808;SDS011;2418;49.930;8.606;2022-08-19T08:59:41;5.63;;;5.23;;
4808;SDS011;2418;49.930;8.606;2022-08-19T09:02:08;6.47;;;5.97;;
4808;SDS011;2418;49.930;8.606;2022-08-19T09:04:35;5.20;;;5.00;;
4808;SDS011;2418;49.930;8.606;2022-08-19T09:09:41;6.40;;;6.00;;
4808;SDS011;2418;49.930;8.606;2022-08-19T09:12:11;6.57;;;6.28;;
4808;SDS011;2418;49.930;8.606;2022-08-19T09:14:53;7.25;;;6.68;;
4808;SDS011;2418;49.930;8.606;2022-08-19T09:17:24;6.15;;;5.85;;
4808;SDS011;2418;49.930;8.606;2022-08-19T09:20:15;6.60;;;6.28;;
4808;SDS011;2418;49.930;8.606;2022-08-19T09:22:41;6.50;;;6.10;;
4808;SDS011;2418;49.930;8.606;2022-08-19T09:25:12;6.50;;;6.10;;
4808;SDS011;2418;49.930;8.606;2022-08-19T09:27:39;7.60;;;7.00;;
4808;SDS011;2418;49.930;8.606;2022-08-19T09:30:06;7.00;;;6.35;;
4808;SDS011;2418;49.930;8.606;2022-08-19T09:32:33;8.10;;;7.50;;
4808;SDS011;2418;49.930;8.606;2022-08-19T09:34:59;7.90;;;7.50;;
4808;SDS011;2418;49.930;8.606;2022-08-19T09:37:26;7.10;;;6.60;;
4808;SDS011;2418;49.930;8.606;2022-08-19T09:39:53;7.53;;;7.03;;
4808;SDS011;2418;49.930;8.606;2022-08-19T09:42:19;8.30;;;7.70;;
4808;SDS011;2418;49.930;8.606;2022-08-19T09:44:45;9.07;;;6.97;;
4808;SDS011;2418;49.930;8.606;2022-08-19T09:47:11;7.50;;;7.10;;
4808;SDS011;2418;49.930;8.606;2022-08-19T09:49:38;8.57;;;7.97;;
4808;SDS011;2418;49.930;8.606;2022-08-19T09:52:05;9.30;;;8.50;;
4808;SDS011;2418;49.930;8.606;2022-08-19T09:54:32;9.10;;;8.30;;
4808;SDS011;2418;49.930;8.606;2022-08-19T09:56:59;7.70;;;7.35;;
4808;SDS011;2418;49.930;8.606;2022-08-19T09:59:25;8.30;;;7.80;;
4808;SDS011;2418;49.930;8.606;2022-08-19T10:01:51;8.90;;;8.20;;
4808;SDS011;2418;49.930;8.606;2022-08-19T10:04:18;8.13;;;7.47;;
4808;SDS011;2418;49.930;8.606;2022-08-19T10:06:46;7.55;;;7.10;;
4808;SDS011;2418;49.930;8.606;2022-08-19T10:09:13;8.73;;;7.95;;
4808;SDS011;2418;49.930;8.606;2022-08-19T10:11:40;7.78;;;7.00;;
4808;SDS011;2418;49.930;8.606;2022-08-19T10:14:07;7.82;;;7.22;;
4808;SDS011;2418;49.930;8.606;2022-08-19T10:16:33;7.20;;;6.90;;
4808;SDS011;2418;49.930;8.606;2022-08-19T10:18:59;7.90;;;7.20;;
4808;SDS011;2418;49.930;8.606;2022-08-19T10:21:27;8.13;;;7.43;;
4808;SDS011;2418;49.930;8.606;2022-08-19T10:23:54;7.63;;;6.97;;
4808;SDS011;2418;49.930;8.606;2022-08-19T10:26:22;7.30;;;6.90;;
4808;SDS011;2418;49.930;8.606;2022-08-19T10:28:48;12.83;;;9.03;;
4808;SDS011;2418;49.930;8.606;2022-08-19T10:31:16;8.30;;;7.80;;
4808;SDS011;2418;49.930;8.606;2022-08-19T10:33:42;9.20;;;8.40;;
4808;SDS011;2418;49.930;8.606;2022-08-19T10:36:13;8.80;;;8.20;;
4808;SDS011;2418;49.930;8.606;2022-08-19T10:38:40;8.98;;;8.38;;
4808;SDS011;2418;49.930;8.606;2022-08-19T10:41:07;9.68;;;8.68;;
4808;SDS011;2418;49.930;8.606;2022-08-19T10:43:33;9.00;;;8.40;;
4808;SDS011;2418;49.930;8.606;2022-08-19T10:46:03;10.80;;;9.80;;
4808;SDS011;2418;49.930;8.606;2022-08-19T10:48:30;8.38;;;7.88;;
4808;SDS011;2418;49.930;8.606;2022-08-19T10:50:56;10.13;;;8.20;;
4808;SDS011;2418;49.930;8.606;2022-08-19T10:53:41;8.20;;;7.80;;
4808;SDS011;2418;49.930;8.606;2022-08-19T10:56:07;7.80;;;7.20;;
4808;SDS011;2418;49.930;8.606;2022-08-19T10:58:52;6.30;;;6.10;;
4808;SDS011;2418;49.930;8.606;2022-08-19T11:01:18;6.30;;;5.97;;
4808;SDS011;2418;49.930;8.606;2022-08-19T11:03:44;6.20;;;5.67;;
4808;SDS011;2418;49.930;8.606;2022-08-19T11:06:10;8.00;;;7.40;;
4808;SDS011;2418;49.930;8.606;2022-08-19T11:08:36;7.27;;;6.87;;
4808;SDS011;2418;49.930;8.606;2022-08-19T11:11:02;6.93;;;6.50;;
4808;SDS011;2418;49.930;8.606;2022-08-19T11:13:29;7.47;;;6.28;;
4808;SDS011;2418;49.930;8.606;2022-08-19T11:16:00;6.00;;;5.63;;
4808;SDS011;2418;49.930;8.606;2022-08-19T11:18:26;5.80;;;5.70;;
4808;SDS011;2418;49.930;8.606;2022-08-19T11:20:52;6.75;;;6.25;;
4808;SDS011;2418;49.930;8.606;2022-08-19T11:23:18;6.82;;;6.30;;
4808;SDS011;2418;49.930;8.606;2022-08-19T11:25:44;7.50;;;7.10;;
4808;SDS011;2418;49.930;8.606;2022-08-19T11:28:11;7.65;;;7.05;;
4808;SDS011;2418;49.930;8.606;2022-08-19T11:30:37;7.50;;;7.20;;
4808;SDS011;2418;49.930;8.606;2022-08-19T11:33:03;7.90;;;7.50;;
4808;SDS011;2418;49.930;8.606;2022-08-19T11:35:29;7.93;;;7.53;;
4808;SDS011;2418;49.930;8.606;2022-08-19T11:37:55;8.77;;;8.07;;
4808;SDS011;2418;49.930;8.606;2022-08-19T11:40:26;9.07;;;8.57;;
4808;SDS011;2418;49.930;8.606;2022-08-19T11:42:52;9.95;;;9.18;;
4808;SDS011;2418;49.930;8.606;2022-08-19T11:45:25;10.77;;;9.77;;
4808;SDS011;2418;49.930;8.606;2022-08-19T11:47:51;9.65;;;8.90;;
4808;SDS011;2418;49.930;8.606;2022-08-19T11:50:17;10.15;;;9.35;;
4808;SDS011;2418;49.930;8.606;2022-08-19T11:52:44;9.40;;;8.80;;
4808;SDS011;2418;49.930;8.606;2022-08-19T11:55:10;9.40;;;8.80;;
4808;SDS011;2418;49.930;8.606;2022-08-19T11:57:36;9.90;;;9.20;;
4808;SDS011;2418;49.930;8.606;2022-08-19T12:00:03;11.48;;;10.60;;
4808;SDS011;2418;49.930;8.606;2022-08-19T12:02:31;9.60;;;9.00;;
4808;SDS011;2418;49.930;8.606;2022-08-19T12:04:57;9.27;;;8.77;;
4808;SDS011;2418;49.930;8.606;2022-08-19T12:07:23;9.07;;;8.38;;
4808;SDS011;2418;49.930;8.606;2022-08-19T12:09:49;9.65;;;8.95;;
4808;SDS011;2418;49.930;8.606;2022-08-19T12:12:15;10.20;;;9.30;;
4808;SDS011;2418;49.930;8.606;2022-08-19T12:14:41;9.80;;;9.00;;
4808;SDS011;2418;49.930;8.606;2022-08-19T12:17:07;10.30;;;9.57;;
4808;SDS011;2418;49.930;8.606;2022-08-19T12:19:35;8.60;;;8.10;;
4808;SDS011;2418;49.930;8.606;2022-08-19T12:22:01;7.93;;;7.53;;
4808;SDS011;2418;49.930;8.606;2022-08-19T12:24:29;7.90;;;6.90;;
4808;SDS011;2418;49.930;8.606;2022-08-19T12:26:56;8.07;;;7.57;;
4808;SDS011;2418;49.930;8.606;2022-08-19T12:29:23;7.15;;;6.75;;
4808;SDS011;2418;49.930;8.606;2022-08-19T12:31:53;7.30;;;7.00;;
4808;SDS011;2418;49.930;8.606;2022-08-19T12:34:25;8.40;;;7.80;;
4808;SDS011;2418;49.930;8.606;2022-08-19T12:36:51;5.85;;;5.65;;
4808;SDS011;2418;49.930;8.606;2022-08-19T12:39:17;5.38;;;5.28;;
4808;SDS011;2418;49.930;8.606;2022-08-19T12:41:43;5.30;;;4.90;;
4808;SDS011;2418;49.930;8.606;2022-08-19T12:44:08;5.80;;;5.50;;
4808;SDS011;2418;49.930;8.606;2022-08-19T12:46:35;5.60;;;5.20;;
4808;SDS011;2418;49.930;8.606;2022-08-19T12:49:01;5.55;;;5.25;;
4808;SDS011;2418;49.930;8.606;2022-08-19T12:51:28;6.00;;;5.60;;
4808;SDS011;2418;49.930;8.606;2022-08-19T12:53:54;5.75;;;5.40;;
4808;SDS011;2418;49.930;8.606;2022-08-19T12:56:20;5.30;;;4.80;;
4808;SDS011;2418;49.930;8.606;2022-08-19T12:58:46;3.90;;;3.60;;
4808;SDS011;2418;49.930;8.606;2022-08-19T13:01:13;4.45;;;4.35;;
4808;SDS011;2418;49.930;8.606;2022-08-19T13:03:39;4.50;;;4.30;;
4808;SDS011;2418;49.930;8.606;2022-08-19T13:06:06;4.80;;;4.60;;
4808;SDS011;2418;49.930;8.606;2022-08-19T13:08:32;3.80;;;3.70;;
4808;SDS011;2418;49.930;8.606;2022-08-19T13:11:05;5.40;;;5.05;;
4808;SDS011;2418;49.930;8.606;2022-08-19T13:13:31;5.05;;;4.78;;
4808;SDS011;2418;49.930;8.606;2022-08-19T13:16:00;4.57;;;4.37;;
4808;SDS011;2418;49.930;8.606;2022-08-19T13:18:29;4.75;;;4.63;;
4808;SDS011;2418;49.930;8.606;2022-08-19T13:20:56;4.88;;;4.65;;
4808;SDS011;2418;49.930;8.606;2022-08-19T13:23:22;4.68;;;4.47;;
4808;SDS011;2418;49.930;8.606;2022-08-19T13:26:00;4.20;;;4.10;;
4808;SDS011;2418;49.930;8.606;2022-08-19T13:28:27;3.60;;;3.50;;
4808;SDS011;2418;49.930;8.606;2022-08-19T13:31:20;4.10;;;3.80;;
4808;SDS011;2418;49.930;8.606;2022-08-19T13:34:05;4.50;;;4.40;;
4808;SDS011;2418;49.930;8.606;2022-08-19T13:36:32;4.50;;;4.40;;
4808;SDS011;2418;49.930;8.606;2022-08-19T13:38:58;4.47;;;4.28;;
4808;SDS011;2418;49.930;8.606;2022-08-19T13:41:24;4.00;;;3.90;;
4808;SDS011;2418;49.930;8.606;2022-08-19T13:43:51;4.23;;;4.03;;
4808;SDS011;2418;49.930;8.606;2022-08-19T13:46:17;3.40;;;3.40;;
4808;SDS011;2418;49.930;8.606;2022-08-19T13:48:44;3.70;;;3.50;;
4808;SDS011;2418;49.930;8.606;2022-08-19T13:51:11;5.90;;;3.20;;
4808;SDS011;2418;49.930;8.606;2022-08-19T13:53:37;3.25;;;3.25;;
4808;SDS011;2418;49.930;8.606;2022-08-19T13:56:07;4.13;;;3.72;;
4808;SDS011;2418;49.930;8.606;2022-08-19T13:58:33;7.53;;;3.33;;
4808;SDS011;2418;49.930;8.606;2022-08-19T14:00:59;3.92;;;3.50;;
4808;SDS011;2418;49.930;8.606;2022-08-19T14:03:25;6.28;;;3.53;;
4808;SDS011;2418;49.930;8.606;2022-08-19T14:05:51;3.35;;;3.25;;
4808;SDS011;2418;49.930;8.606;2022-08-19T14:08:17;3.13;;;3.03;;
4808;SDS011;2418;49.930;8.606;2022-08-19T14:10:44;2.78;;;2.67;;
4808;SDS011;2418;49.930;8.606;2022-08-19T14:13:10;3.13;;;3.03;;
4808;SDS011;2418;49.930;8.606;2022-08-19T14:15:38;4.10;;;2.95;;
4808;SDS011;2418;49.930;8.606;2022-08-19T14:18:05;4.83;;;3.10;;
4808;SDS011;2418;49.930;8.606;2022-08-19T14:20:33;3.30;;;3.20;;
4808;SDS011;2418;49.930;8.606;2022-08-19T14:22:59;3.40;;;3.30;;
4808;SDS011;2418;49.930;8.606;2022-08-19T14:25:26;4.93;;;3.80;;
4808;SDS011;2418;49.930;8.606;2022-08-19T14:27:53;7.20;;;3.70;;
4808;SDS011;2418;49.930;8.606;2022-08-19T14:30:20;3.17;;;2.88;;
4808;SDS011;2418;49.930;8.606;2022-08-19T14:32:46;3.50;;;3.20;;
4808;SDS011;2418;49.930;8.606;2022-08-19T14:35:13;3.55;;;3.25;;
4808;SDS011;2418;49.930;8.606;2022-08-19T14:37:40;3.17;;;3.08;;
4808;SDS011;2418;49.930;8.606;2022-08-19T14:40:06;3.53;;;3.33;;
4808;SDS011;2418;49.930;8.606;2022-08-19T14:42:33;5.20;;;3.42;;
4808;SDS011;2418;49.930;8.606;2022-08-19T14:44:59;4.35;;;3.25;;
4808;SDS011;2418;49.930;8.606;2022-08-19T14:47:25;9.03;;;3.70;;
4808;SDS011;2418;49.930;8.606;2022-08-19T14:49:51;3.70;;;3.50;;
4808;SDS011;2418;49.930;8.606;2022-08-19T14:52:17;7.35;;;3.40;;
4808;SDS011;2418;49.930;8.606;2022-08-19T14:54:43;3.80;;;3.60;;
4808;SDS011;2418;49.930;8.606;2022-08-19T14:57:11;5.90;;;3.50;;
4808;SDS011;2418;49.930;8.606;2022-08-19T14:59:37;3.90;;;3.80;;
4808;SDS011;2418;49.930;8.606;2022-08-19T15:02:03;3.90;;;3.60;;
4808;SDS011;2418;49.930;8.606;2022-08-19T15:04:29;3.78;;;3.58;;
4808;SDS011;2418;49.930;8.606;2022-08-19T15:06:55;6.70;;;4.70;;
4808;SDS011;2418;49.930;8.606;2022-08-19T15:09:21;4.70;;;4.50;;